sensor_id;sensor_type;location;lat;lon;timestamp;temperature;humidity
72206;DHT22;60111;48.286;7.812;2023-06-22T00:02:32;21.50;81.30
72206;DHT22;60111;48.286;7.812;2023-06-22T00:05:05;21.40;81.30
72206;DHT22;60111;48.286;7.812;2023-06-22T00:07:37;21.30;81.80
72206;DHT22;60111;48.286;7.812;2023-06-22T00:10:10;21.20;82.20
72206;DHT22;60111;48.286;7.812;2023-06-22T00:12:43;21.10;82.50
72206;DHT22;60111;48.286;7.812;2023-06-22T00:15:15;21.10;82.90
72206;DHT22;60111;48.286;7.812;2023-06-22T00:17:50;21.10;82.70
72206;DHT22;60111;48.286;7.812;2023-06-22T00:20:23;21.10;83.00
72206;DHT22;60111;48.286;7.812;2023-06-22T00:22:58;21.10;82.90
72206;DHT22;60111;48.286;7.812;2023-06-22T00:25:31;21.10;82.90
72206;DHT22;60111;48.286;7.812;2023-06-22T00:28:04;21.10;82.70
72206;DHT22;60111;48.286;7.812;2023-06-22T00:30:37;21.10;82.70
72206;DHT22;60111;48.286;7.812;2023-06-22T00:33:09;21.10;82.90
72206;DHT22;60111;48.286;7.812;2023-06-22T00:35:42;21.00;83.30
72206;DHT22;60111;48.286;7.812;2023-06-22T00:38:15;20.90;83.50
72206;DHT22;60111;48.286;7.812;2023-06-22T00:40:47;20.90;83.40
72206;DHT22;60111;48.286;7.812;2023-06-22T00:43:20;20.90;83.60
72206;DHT22;60111;48.286;7.812;2023-06-22T00:45:54;20.90;83.00
72206;DHT22;60111;48.286;7.812;2023-06-22T00:48:28;21.00;82.70
72206;DHT22;60111;48.286;7.812;2023-06-22T00:51:00;21.00;82.50
72206;DHT22;60111;48.286;7.812;2023-06-22T00:53:34;21.00;82.50
72206;DHT22;60111;48.286;7.812;2023-06-22T00:56:06;20.90;83.00
72206;DHT22;60111;48.286;7.812;2023-06-22T00:58:40;20.80;83.30
72206;DHT22;60111;48.286;7.812;2023-06-22T01:01:13;20.80;83.50
72206;DHT22;60111;48.286;7.812;2023-06-22T01:03:46;20.80;83.60
72206;DHT22;60111;48.286;7.812;2023-06-22T01:06:22;20.80;83.50
72206;DHT22;60111;48.286;7.812;2023-06-22T01:09:18;20.80;83.40
72206;DHT22;60111;48.286;7.812;2023-06-22T01:11:55;20.70;83.50
72206;DHT22;60111;48.286;7.812;2023-06-22T01:14:43;20.70;83.80
72206;DHT22;60111;48.286;7.812;2023-06-22T01:17:17;20.70;83.70
72206;DHT22;60111;48.286;7.812;2023-06-22T01:19:51;20.70;83.60
72206;DHT22;60111;48.286;7.812;2023-06-22T01:22:29;20.60;83.70
72206;DHT22;60111;48.286;7.812;2023-06-22T01:25:10;20.60;83.80
72206;DHT22;60111;48.286;7.812;2023-06-22T01:28:24;20.60;83.70
72206;DHT22;60111;48.286;7.812;2023-06-22T01:30:41;20.60;83.50
72206;DHT22;60111;48.286;7.812;2023-06-22T01:33:16;20.60;83.80
72206;DHT22;60111;48.286;7.812;2023-06-22T01:35:49;20.60;83.90
72206;DHT22;60111;48.286;7.812;2023-06-22T01:38:21;20.60;84.00
72206;DHT22;60111;48.286;7.812;2023-06-22T01:40:55;20.60;83.90
72206;DHT22;60111;48.286;7.812;2023-06-22T01:43:28;20.60;84.10
72206;DHT22;60111;48.286;7.812;2023-06-22T01:46:02;20.50;84.20
72206;DHT22;60111;48.286;7.812;2023-06-22T01:48:34;20.50;84.20
72206;DHT22;60111;48.286;7.812;2023-06-22T01:51:07;20.50;84.10
72206;DHT22;60111;48.286;7.812;2023-06-22T01:53:39;20.50;84.30
72206;DHT22;60111;48.286;7.812;2023-06-22T01:56:12;20.50;83.80
72206;DHT22;60111;48.286;7.812;2023-06-22T01:58:58;20.50;84.00
72206;DHT22;60111;48.286;7.812;2023-06-22T02:01:31;20.50;84.20
72206;DHT22;60111;48.286;7.812;2023-06-22T02:04:08;20.40;84.30
72206;DHT22;60111;48.286;7.812;2023-06-22T02:06:42;20.50;84.20
72206;DHT22;60111;48.286;7.812;2023-06-22T02:09:17;20.40;84.10
72206;DHT22;60111;48.286;7.812;2023-06-22T02:11:53;20.40;83.90
72206;DHT22;60111;48.286;7.812;2023-06-22T02:14:27;20.40;84.10
72206;DHT22;60111;48.286;7.812;2023-06-22T02:16:59;20.40;84.30
72206;DHT22;60111;48.286;7.812;2023-06-22T02:19:32;20.40;84.30
72206;DHT22;60111;48.286;7.812;2023-06-22T02:22:05;20.40;84.10
72206;DHT22;60111;48.286;7.812;2023-06-22T02:24:37;20.30;84.20
72206;DHT22;60111;48.286;7.812;2023-06-22T02:27:10;20.20;84.50
72206;DHT22;60111;48.286;7.812;2023-06-22T02:29:42;20.20;84.50
72206;DHT22;60111;48.286;7.812;2023-06-22T02:32:15;20.20;84.60
72206;DHT22;60111;48.286;7.812;2023-06-22T02:34:49;20.20;84.60
72206;DHT22;60111;48.286;7.812;2023-06-22T02:37:22;20.30;84.40
72206;DHT22;60111;48.286;7.812;2023-06-22T02:39:55;20.30;84.40
72206;DHT22;60111;48.286;7.812;2023-06-22T02:42:28;20.30;84.10
72206;DHT22;60111;48.286;7.812;2023-06-22T02:45:01;20.30;84.20
72206;DHT22;60111;48.286;7.812;2023-06-22T02:47:33;20.20;84.30
72206;DHT22;60111;48.286;7.812;2023-06-22T02:50:06;20.20;84.60
72206;DHT22;60111;48.286;7.812;2023-06-22T02:52:39;20.10;84.80
72206;DHT22;60111;48.286;7.812;2023-06-22T02:55:11;20.10;84.70
72206;DHT22;60111;48.286;7.812;2023-06-22T02:57:44;20.10;84.80
72206;DHT22;60111;48.286;7.812;2023-06-22T03:00:17;20.10;84.50
72206;DHT22;60111;48.286;7.812;2023-06-22T03:02:49;20.10;84.80
72206;DHT22;60111;48.286;7.812;2023-06-22T03:05:22;20.00;84.90
72206;DHT22;60111;48.286;7.812;2023-06-22T03:07:55;20.00;85.00
72206;DHT22;60111;48.286;7.812;2023-06-22T03:10:27;20.00;85.30
72206;DHT22;60111;48.286;7.812;2023-06-22T03:13:00;20.00;85.30
72206;DHT22;60111;48.286;7.812;2023-06-22T03:15:32;19.90;85.40
72206;DHT22;60111;48.286;7.812;2023-06-22T03:18:05;20.00;85.30
72206;DHT22;60111;48.286;7.812;2023-06-22T03:20:38;20.00;85.10
72206;DHT22;60111;48.286;7.812;2023-06-22T03:23:10;20.00;85.00
72206;DHT22;60111;48.286;7.812;2023-06-22T03:25:43;19.90;85.00
72206;DHT22;60111;48.286;7.812;2023-06-22T03:28:18;20.00;85.10
72206;DHT22;60111;48.286;7.812;2023-06-22T03:30:51;19.90;85.10
72206;DHT22;60111;48.286;7.812;2023-06-22T03:33:23;19.90;85.20
72206;DHT22;60111;48.286;7.812;2023-06-22T03:35:56;19.90;85.20
72206;DHT22;60111;48.286;7.812;2023-06-22T03:38:29;20.00;85.20
72206;DHT22;60111;48.286;7.812;2023-06-22T03:41:01;19.90;85.10
72206;DHT22;60111;48.286;7.812;2023-06-22T03:43:34;19.90;85.10
72206;DHT22;60111;48.286;7.812;2023-06-22T03:46:06;19.80;85.70
72206;DHT22;60111;48.286;7.812;2023-06-22T03:48:39;19.80;86.00
72206;DHT22;60111;48.286;7.812;2023-06-22T03:51:11;19.70;86.10
72206;DHT22;60111;48.286;7.812;2023-06-22T03:53:44;19.70;86.20
72206;DHT22;60111;48.286;7.812;2023-06-22T03:56:18;19.70;86.20
72206;DHT22;60111;48.286;7.812;2023-06-22T03:58:52;19.80;86.10
72206;DHT22;60111;48.286;7.812;2023-06-22T04:01:24;19.80;85.90
72206;DHT22;60111;48.286;7.812;2023-06-22T04:03:57;19.80;85.90
72206;DHT22;60111;48.286;7.812;2023-06-22T04:06:29;19.80;86.00
72206;DHT22;60111;48.286;7.812;2023-06-22T04:09:02;19.80;86.20
72206;DHT22;60111;48.286;7.812;2023-06-22T04:11:35;19.80;86.10
72206;DHT22;60111;48.286;7.812;2023-06-22T04:14:07;19.80;86.20
72206;DHT22;60111;48.286;7.812;2023-06-22T04:16:40;19.80;85.90
72206;DHT22;60111;48.286;7.812;2023-06-22T04:19:13;19.80;85.90
72206;DHT22;60111;48.286;7.812;2023-06-22T04:21:48;19.80;85.80
72206;DHT22;60111;48.286;7.812;2023-06-22T04:24:20;19.80;86.10
72206;DHT22;60111;48.286;7.812;2023-06-22T04:26:53;19.80;86.20
72206;DHT22;60111;48.286;7.812;2023-06-22T04:29:26;19.70;86.40
72206;DHT22;60111;48.286;7.812;2023-06-22T04:32:00;19.80;86.50
72206;DHT22;60111;48.286;7.812;2023-06-22T04:34:34;19.90;86.20
72206;DHT22;60111;48.286;7.812;2023-06-22T04:37:06;19.80;86.10
72206;DHT22;60111;48.286;7.812;2023-06-22T04:39:39;19.80;86.10
72206;DHT22;60111;48.286;7.812;2023-06-22T04:42:12;19.80;86.40
72206;DHT22;60111;48.286;7.812;2023-06-22T04:44:45;19.70;86.60
72206;DHT22;60111;48.286;7.812;2023-06-22T04:47:18;19.70;87.10
72206;DHT22;60111;48.286;7.812;2023-06-22T04:49:50;19.70;87.40
72206;DHT22;60111;48.286;7.812;2023-06-22T04:52:23;19.80;87.10
72206;DHT22;60111;48.286;7.812;2023-06-22T04:54:56;19.90;86.80
72206;DHT22;60111;48.286;7.812;2023-06-22T04:57:30;19.90;86.60
72206;DHT22;60111;48.286;7.812;2023-06-22T05:00:05;19.90;86.70
72206;DHT22;60111;48.286;7.812;2023-06-22T05:02:50;20.00;86.60
72206;DHT22;60111;48.286;7.812;2023-06-22T05:05:22;20.10;86.30
72206;DHT22;60111;48.286;7.812;2023-06-22T05:07:56;20.10;86.40
72206;DHT22;60111;48.286;7.812;2023-06-22T05:10:31;20.10;86.50
72206;DHT22;60111;48.286;7.812;2023-06-22T05:13:03;20.20;86.20
72206;DHT22;60111;48.286;7.812;2023-06-22T05:15:36;20.20;86.00
72206;DHT22;60111;48.286;7.812;2023-06-22T05:18:10;20.20;86.20
72206;DHT22;60111;48.286;7.812;2023-06-22T05:20:43;20.20;86.00
72206;DHT22;60111;48.286;7.812;2023-06-22T05:23:15;20.30;85.60
72206;DHT22;60111;48.286;7.812;2023-06-22T05:25:48;20.30;85.80
72206;DHT22;60111;48.286;7.812;2023-06-22T05:28:21;20.40;85.30
72206;DHT22;60111;48.286;7.812;2023-06-22T05:30:54;20.40;85.20
72206;DHT22;60111;48.286;7.812;2023-06-22T05:33:27;20.50;85.00
72206;DHT22;60111;48.286;7.812;2023-06-22T05:35:59;20.50;85.20
72206;DHT22;60111;48.286;7.812;2023-06-22T05:38:32;20.50;84.90
72206;DHT22;60111;48.286;7.812;2023-06-22T05:41:05;20.60;84.70
72206;DHT22;60111;48.286;7.812;2023-06-22T05:43:37;20.60;84.80
72206;DHT22;60111;48.286;7.812;2023-06-22T05:46:10;20.70;84.90
72206;DHT22;60111;48.286;7.812;2023-06-22T05:48:43;20.70;84.60
72206;DHT22;60111;48.286;7.812;2023-06-22T05:51:15;20.90;84.50
72206;DHT22;60111;48.286;7.812;2023-06-22T05:53:48;20.90;84.30
72206;DHT22;60111;48.286;7.812;2023-06-22T05:56:21;21.00;83.90
72206;DHT22;60111;48.286;7.812;2023-06-22T05:58:53;21.10;83.60
72206;DHT22;60111;48.286;7.812;2023-06-22T06:01:26;21.30;82.80
72206;DHT22;60111;48.286;7.812;2023-06-22T06:03:59;21.30;82.80
72206;DHT22;60111;48.286;7.812;2023-06-22T06:06:31;21.50;82.00
72206;DHT22;60111;48.286;7.812;2023-06-22T06:09:05;21.40;82.70
72206;DHT22;60111;48.286;7.812;2023-06-22T06:11:39;21.40;82.70
72206;DHT22;60111;48.286;7.812;2023-06-22T06:14:12;21.40;81.60
72206;DHT22;60111;48.286;7.812;2023-06-22T06:16:44;21.60;81.20
72206;DHT22;60111;48.286;7.812;2023-06-22T06:19:18;21.60;81.70
72206;DHT22;60111;48.286;7.812;2023-06-22T06:21:50;21.70;80.60
72206;DHT22;60111;48.286;7.812;2023-06-22T06:24:23;21.70;80.20
72206;DHT22;60111;48.286;7.812;2023-06-22T06:26:55;21.80;80.00
72206;DHT22;60111;48.286;7.812;2023-06-22T06:29:28;21.90;80.20
72206;DHT22;60111;48.286;7.812;2023-06-22T06:32:01;22.00;80.10
72206;DHT22;60111;48.286;7.812;2023-06-22T06:34:33;22.00;79.00
72206;DHT22;60111;48.286;7.812;2023-06-22T06:37:06;22.20;78.60
72206;DHT22;60111;48.286;7.812;2023-06-22T06:39:38;22.30;78.50
72206;DHT22;60111;48.286;7.812;2023-06-22T06:42:11;22.40;78.80
72206;DHT22;60111;48.286;7.812;2023-06-22T06:44:43;22.50;78.50
72206;DHT22;60111;48.286;7.812;2023-06-22T06:47:16;22.60;78.80
72206;DHT22;60111;48.286;7.812;2023-06-22T06:49:49;22.80;77.70
72206;DHT22;60111;48.286;7.812;2023-06-22T06:52:21;22.90;77.00
72206;DHT22;60111;48.286;7.812;2023-06-22T06:54:54;23.00;76.50
72206;DHT22;60111;48.286;7.812;2023-06-22T06:57:27;22.90;76.30
72206;DHT22;60111;48.286;7.812;2023-06-22T07:00:02;22.80;76.60
72206;DHT22;60111;48.286;7.812;2023-06-22T07:02:42;22.80;76.80
72206;DHT22;60111;48.286;7.812;2023-06-22T07:05:12;22.90;76.30
72206;DHT22;60111;48.286;7.812;2023-06-22T07:07:45;22.80;76.80
72206;DHT22;60111;48.286;7.812;2023-06-22T07:10:18;22.80;77.00
72206;DHT22;60111;48.286;7.812;2023-06-22T07:12:51;22.70;77.10
72206;DHT22;60111;48.286;7.812;2023-06-22T07:15:23;22.70;77.90
72206;DHT22;60111;48.286;7.812;2023-06-22T07:17:56;22.60;78.10
72206;DHT22;60111;48.286;7.812;2023-06-22T07:20:29;22.50;78.30
72206;DHT22;60111;48.286;7.812;2023-06-22T07:23:01;22.40;78.60
72206;DHT22;60111;48.286;7.812;2023-06-22T07:25:34;22.30;78.30
72206;DHT22;60111;48.286;7.812;2023-06-22T07:28:07;22.30;78.40
72206;DHT22;60111;48.286;7.812;2023-06-22T07:30:40;22.20;79.90
72206;DHT22;60111;48.286;7.812;2023-06-22T07:33:12;22.20;80.30
72206;DHT22;60111;48.286;7.812;2023-06-22T07:35:45;22.30;80.00
72206;DHT22;60111;48.286;7.812;2023-06-22T07:38:19;22.20;79.20
72206;DHT22;60111;48.286;7.812;2023-06-22T07:40:51;22.20;79.80
72206;DHT22;60111;48.286;7.812;2023-06-22T07:43:24;22.20;80.20
72206;DHT22;60111;48.286;7.812;2023-06-22T07:45:57;22.10;79.80
72206;DHT22;60111;48.286;7.812;2023-06-22T07:48:30;22.00;80.10
72206;DHT22;60111;48.286;7.812;2023-06-22T07:51:02;21.90;80.60
72206;DHT22;60111;48.286;7.812;2023-06-22T07:53:35;21.90;80.60
72206;DHT22;60111;48.286;7.812;2023-06-22T07:56:09;21.90;81.70
72206;DHT22;60111;48.286;7.812;2023-06-22T07:58:41;22.10;81.90
72206;DHT22;60111;48.286;7.812;2023-06-22T08:01:14;22.30;80.70
72206;DHT22;60111;48.286;7.812;2023-06-22T08:03:49;22.50;80.20
72206;DHT22;60111;48.286;7.812;2023-06-22T08:06:21;22.50;78.90
72206;DHT22;60111;48.286;7.812;2023-06-22T08:08:54;22.50;78.40
72206;DHT22;60111;48.286;7.812;2023-06-22T08:11:28;22.60;78.30
72206;DHT22;60111;48.286;7.812;2023-06-22T08:14:01;22.60;78.40
72206;DHT22;60111;48.286;7.812;2023-06-22T08:16:33;22.80;77.40
72206;DHT22;60111;48.286;7.812;2023-06-22T08:19:06;22.90;77.30
72206;DHT22;60111;48.286;7.812;2023-06-22T08:21:38;23.00;76.20
72206;DHT22;60111;48.286;7.812;2023-06-22T08:24:11;23.10;75.80
72206;DHT22;60111;48.286;7.812;2023-06-22T08:26:44;23.20;75.30
72206;DHT22;60111;48.286;7.812;2023-06-22T08:29:17;23.30;75.30
72206;DHT22;60111;48.286;7.812;2023-06-22T08:31:49;23.40;75.20
72206;DHT22;60111;48.286;7.812;2023-06-22T08:34:22;23.60;73.80
72206;DHT22;60111;48.286;7.812;2023-06-22T08:36:55;23.70;74.60
72206;DHT22;60111;48.286;7.812;2023-06-22T08:39:28;23.90;73.00
72206;DHT22;60111;48.286;7.812;2023-06-22T08:42:01;24.10;73.00
72206;DHT22;60111;48.286;7.812;2023-06-22T08:44:34;24.30;72.00
72206;DHT22;60111;48.286;7.812;2023-06-22T08:47:07;24.60;70.50
72206;DHT22;60111;48.286;7.812;2023-06-22T08:49:39;24.70;70.50
72206;DHT22;60111;48.286;7.812;2023-06-22T08:52:12;24.90;70.20
72206;DHT22;60111;48.286;7.812;2023-06-22T08:54:45;25.00;69.80
72206;DHT22;60111;48.286;7.812;2023-06-22T08:57:19;25.10;69.00
72206;DHT22;60111;48.286;7.812;2023-06-22T08:59:51;25.20;67.60
72206;DHT22;60111;48.286;7.812;2023-06-22T09:02:25;25.10;67.60
72206;DHT22;60111;48.286;7.812;2023-06-22T09:05:02;25.00;67.80
72206;DHT22;60111;48.286;7.812;2023-06-22T09:07:34;25.00;68.00
72206;DHT22;60111;48.286;7.812;2023-06-22T09:10:07;25.00;68.20
72206;DHT22;60111;48.286;7.812;2023-06-22T09:12:40;25.00;68.20
72206;DHT22;60111;48.286;7.812;2023-06-22T09:15:14;25.10;67.70
72206;DHT22;60111;48.286;7.812;2023-06-22T09:17:47;25.20;66.60
72206;DHT22;60111;48.286;7.812;2023-06-22T09:20:20;25.30;66.30
72206;DHT22;60111;48.286;7.812;2023-06-22T09:22:52;25.40;66.90
72206;DHT22;60111;48.286;7.812;2023-06-22T09:25:25;25.50;67.40
72206;DHT22;60111;48.286;7.812;2023-06-22T09:27:57;25.50;66.50
72206;DHT22;60111;48.286;7.812;2023-06-22T09:30:30;25.60;66.10
72206;DHT22;60111;48.286;7.812;2023-06-22T09:33:03;25.60;66.40
72206;DHT22;60111;48.286;7.812;2023-06-22T09:35:35;25.80;66.60
72206;DHT22;60111;48.286;7.812;2023-06-22T09:38:08;25.70;65.30
72206;DHT22;60111;48.286;7.812;2023-06-22T09:40:40;25.80;64.30
72206;DHT22;60111;48.286;7.812;2023-06-22T09:43:13;25.90;66.00
72206;DHT22;60111;48.286;7.812;2023-06-22T09:45:45;26.00;65.30
72206;DHT22;60111;48.286;7.812;2023-06-22T09:48:19;26.20;64.30
72206;DHT22;60111;48.286;7.812;2023-06-22T09:50:51;26.40;65.50
72206;DHT22;60111;48.286;7.812;2023-06-22T09:53:24;26.60;64.80
72206;DHT22;60111;48.286;7.812;2023-06-22T09:55:56;26.70;63.60
72206;DHT22;60111;48.286;7.812;2023-06-22T09:58:29;26.90;62.50
72206;DHT22;60111;48.286;7.812;2023-06-22T10:01:02;26.80;61.80
72206;DHT22;60111;48.286;7.812;2023-06-22T10:03:34;26.80;62.30
72206;DHT22;60111;48.286;7.812;2023-06-22T10:06:07;26.90;61.20
72206;DHT22;60111;48.286;7.812;2023-06-22T10:08:40;27.00;63.60
72206;DHT22;60111;48.286;7.812;2023-06-22T10:11:13;27.20;62.80
72206;DHT22;60111;48.286;7.812;2023-06-22T10:13:45;27.40;60.50
72206;DHT22;60111;48.286;7.812;2023-06-22T10:16:18;27.40;60.10
72206;DHT22;60111;48.286;7.812;2023-06-22T10:18:50;27.60;58.90
72206;DHT22;60111;48.286;7.812;2023-06-22T10:21:23;27.50;58.90
72206;DHT22;60111;48.286;7.812;2023-06-22T10:23:56;27.50;58.90
72206;DHT22;60111;48.286;7.812;2023-06-22T10:26:28;27.50;58.70
72206;DHT22;60111;48.286;7.812;2023-06-22T10:29:01;27.70;58.60
72206;DHT22;60111;48.286;7.812;2023-06-22T10:31:34;28.00;59.70
72206;DHT22;60111;48.286;7.812;2023-06-22T10:34:06;28.10;57.90
72206;DHT22;60111;48.286;7.812;2023-06-22T10:36:39;28.20;56.80
72206;DHT22;60111;48.286;7.812;2023-06-22T10:39:11;28.30;57.90
72206;DHT22;60111;48.286;7.812;2023-06-22T10:41:44;28.40;58.50
72206;DHT22;60111;48.286;7.812;2023-06-22T10:44:16;28.50;55.50
72206;DHT22;60111;48.286;7.812;2023-06-22T10:46:49;28.30;55.70
72206;DHT22;60111;48.286;7.812;2023-06-22T10:49:22;28.20;55.90
72206;DHT22;60111;48.286;7.812;2023-06-22T10:51:54;28.20;55.40
72206;DHT22;60111;48.286;7.812;2023-06-22T10:54:27;28.20;56.80
72206;DHT22;60111;48.286;7.812;2023-06-22T10:57:01;28.20;56.00
72206;DHT22;60111;48.286;7.812;2023-06-22T10:59:33;28.20;55.70
72206;DHT22;60111;48.286;7.812;2023-06-22T11:02:06;28.20;55.30
72206;DHT22;60111;48.286;7.812;2023-06-22T11:04:39;28.20;56.30
72206;DHT22;60111;48.286;7.812;2023-06-22T11:07:11;28.20;55.70
72206;DHT22;60111;48.286;7.812;2023-06-22T11:09:44;28.20;55.80
72206;DHT22;60111;48.286;7.812;2023-06-22T11:12:17;28.20;56.70
72206;DHT22;60111;48.286;7.812;2023-06-22T11:14:49;28.40;55.70
72206;DHT22;60111;48.286;7.812;2023-06-22T11:17:23;28.60;56.40
72206;DHT22;60111;48.286;7.812;2023-06-22T11:19:55;28.70;54.90
72206;DHT22;60111;48.286;7.812;2023-06-22T11:22:28;28.60;55.80
72206;DHT22;60111;48.286;7.812;2023-06-22T11:25:02;28.70;55.40
72206;DHT22;60111;48.286;7.812;2023-06-22T11:27:35;28.60;55.00
72206;DHT22;60111;48.286;7.812;2023-06-22T11:30:08;28.60;54.80
72206;DHT22;60111;48.286;7.812;2023-06-22T11:32:40;28.60;55.20
72206;DHT22;60111;48.286;7.812;2023-06-22T11:35:13;28.60;56.20
72206;DHT22;60111;48.286;7.812;2023-06-22T11:37:47;28.70;56.20
72206;DHT22;60111;48.286;7.812;2023-06-22T11:40:20;28.80;56.80
72206;DHT22;60111;48.286;7.812;2023-06-22T11:42:54;29.00;56.80
72206;DHT22;60111;48.286;7.812;2023-06-22T11:45:27;29.10;55.90
72206;DHT22;60111;48.286;7.812;2023-06-22T11:47:59;29.10;55.60
72206;DHT22;60111;48.286;7.812;2023-06-22T11:50:32;28.90;55.80
72206;DHT22;60111;48.286;7.812;2023-06-22T11:53:06;28.90;56.50
72206;DHT22;60111;48.286;7.812;2023-06-22T11:55:39;28.90;56.60
72206;DHT22;60111;48.286;7.812;2023-06-22T11:58:11;29.00;56.70
72206;DHT22;60111;48.286;7.812;2023-06-22T12:00:44;29.20;56.80
72206;DHT22;60111;48.286;7.812;2023-06-22T12:03:16;29.30;57.00
72206;DHT22;60111;48.286;7.812;2023-06-22T12:05:50;29.50;56.60
72206;DHT22;60111;48.286;7.812;2023-06-22T12:08:26;29.60;55.60
72206;DHT22;60111;48.286;7.812;2023-06-22T12:10:59;29.70;56.30
72206;DHT22;60111;48.286;7.812;2023-06-22T12:13:31;29.70;56.40
72206;DHT22;60111;48.286;7.812;2023-06-22T12:16:04;29.60;56.40
72206;DHT22;60111;48.286;7.812;2023-06-22T12:18:37;29.70;56.90
72206;DHT22;60111;48.286;7.812;2023-06-22T12:21:09;29.80;56.30
72206;DHT22;60111;48.286;7.812;2023-06-22T12:23:42;29.80;56.80
72206;DHT22;60111;48.286;7.812;2023-06-22T12:26:15;29.90;56.40
72206;DHT22;60111;48.286;7.812;2023-06-22T12:28:47;30.00;54.80
72206;DHT22;60111;48.286;7.812;2023-06-22T12:31:20;29.90;56.30
72206;DHT22;60111;48.286;7.812;2023-06-22T12:33:52;29.90;56.50
72206;DHT22;60111;48.286;7.812;2023-06-22T12:36:25;30.00;56.70
72206;DHT22;60111;48.286;7.812;2023-06-22T12:38:57;30.10;57.40
72206;DHT22;60111;48.286;7.812;2023-06-22T12:41:30;30.20;56.10
72206;DHT22;60111;48.286;7.812;2023-06-22T12:44:02;30.30;56.90
72206;DHT22;60111;48.286;7.812;2023-06-22T12:46:35;30.40;56.10
72206;DHT22;60111;48.286;7.812;2023-06-22T12:49:09;30.30;56.60
72206;DHT22;60111;48.286;7.812;2023-06-22T12:51:43;30.00;56.20
72206;DHT22;60111;48.286;7.812;2023-06-22T12:54:16;29.80;56.50
72206;DHT22;60111;48.286;7.812;2023-06-22T12:56:50;29.80;56.40
72206;DHT22;60111;48.286;7.812;2023-06-22T12:59:22;29.70;56.10
72206;DHT22;60111;48.286;7.812;2023-06-22T13:01:55;29.60;56.30
72206;DHT22;60111;48.286;7.812;2023-06-22T13:04:27;29.60;54.70
72206;DHT22;60111;48.286;7.812;2023-06-22T13:07:00;29.60;55.10
72206;DHT22;60111;48.286;7.812;2023-06-22T13:09:32;29.60;54.70
72206;DHT22;60111;48.286;7.812;2023-06-22T13:12:05;29.50;54.40
72206;DHT22;60111;48.286;7.812;2023-06-22T13:14:38;29.40;54.80
72206;DHT22;60111;48.286;7.812;2023-06-22T13:17:11;29.40;54.60
72206;DHT22;60111;48.286;7.812;2023-06-22T13:19:44;29.30;54.70
72206;DHT22;60111;48.286;7.812;2023-06-22T13:22:35;29.20;54.90
72206;DHT22;60111;48.286;7.812;2023-06-22T13:25:09;29.10;55.00
72206;DHT22;60111;48.286;7.812;2023-06-22T13:27:44;29.20;55.10
72206;DHT22;60111;48.286;7.812;2023-06-22T13:30:17;29.10;54.80
72206;DHT22;60111;48.286;7.812;2023-06-22T13:32:50;29.10;55.20
72206;DHT22;60111;48.286;7.812;2023-06-22T13:35:22;29.10;54.50
72206;DHT22;60111;48.286;7.812;2023-06-22T13:37:55;29.20;56.30
72206;DHT22;60111;48.286;7.812;2023-06-22T13:40:28;29.30;55.90
72206;DHT22;60111;48.286;7.812;2023-06-22T13:43:00;29.50;55.00
72206;DHT22;60111;48.286;7.812;2023-06-22T13:45:33;29.60;53.80
72206;DHT22;60111;48.286;7.812;2023-06-22T13:48:06;29.70;55.70
72206;DHT22;60111;48.286;7.812;2023-06-22T13:50:38;29.80;53.90
72206;DHT22;60111;48.286;7.812;2023-06-22T13:53:11;29.80;52.60
72206;DHT22;60111;48.286;7.812;2023-06-22T13:55:43;29.70;53.70
72206;DHT22;60111;48.286;7.812;2023-06-22T13:58:16;29.90;53.70
72206;DHT22;60111;48.286;7.812;2023-06-22T14:00:50;30.20;53.40
72206;DHT22;60111;48.286;7.812;2023-06-22T14:03:23;30.30;50.80
72206;DHT22;60111;48.286;7.812;2023-06-22T14:05:55;30.40;51.50
72206;DHT22;60111;48.286;7.812;2023-06-22T14:08:29;30.40;51.30
72206;DHT22;60111;48.286;7.812;2023-06-22T14:11:02;30.30;51.30
72206;DHT22;60111;48.286;7.812;2023-06-22T14:13:34;30.30;51.60
72206;DHT22;60111;48.286;7.812;2023-06-22T14:16:07;30.20;50.60
72206;DHT22;60111;48.286;7.812;2023-06-22T14:18:39;30.10;51.40
72206;DHT22;60111;48.286;7.812;2023-06-22T14:21:12;30.10;51.50
72206;DHT22;60111;48.286;7.812;2023-06-22T14:23:45;30.10;50.40
72206;DHT22;60111;48.286;7.812;2023-06-22T14:26:20;30.10;50.40
72206;DHT22;60111;48.286;7.812;2023-06-22T14:28:53;30.10;49.90
72206;DHT22;60111;48.286;7.812;2023-06-22T14:31:28;29.90;49.70
72206;DHT22;60111;48.286;7.812;2023-06-22T14:34:01;29.80;50.30
72206;DHT22;60111;48.286;7.812;2023-06-22T14:36:35;29.60;50.20
72206;DHT22;60111;48.286;7.812;2023-06-22T14:39:07;29.40;51.10
72206;DHT22;60111;48.286;7.812;2023-06-22T14:41:40;29.30;51.30
72206;DHT22;60111;48.286;7.812;2023-06-22T14:44:13;29.30;50.30
72206;DHT22;60111;48.286;7.812;2023-06-22T14:46:45;29.40;51.20
72206;DHT22;60111;48.286;7.812;2023-06-22T14:49:18;29.50;50.40
72206;DHT22;60111;48.286;7.812;2023-06-22T14:51:50;29.60;50.70
72206;DHT22;60111;48.286;7.812;2023-06-22T14:54:23;29.90;50.10
72206;DHT22;60111;48.286;7.812;2023-06-22T14:56:55;29.90;49.20
72206;DHT22;60111;48.286;7.812;2023-06-22T14:59:28;29.90;49.00
72206;DHT22;60111;48.286;7.812;2023-06-22T15:02:01;30.00;49.80
72206;DHT22;60111;48.286;7.812;2023-06-22T15:04:33;30.10;49.30
72206;DHT22;60111;48.286;7.812;2023-06-22T15:07:06;30.20;47.90
72206;DHT22;60111;48.286;7.812;2023-06-22T15:09:39;30.30;48.50
72206;DHT22;60111;48.286;7.812;2023-06-22T15:12:13;30.40;48.40
72206;DHT22;60111;48.286;7.812;2023-06-22T15:14:45;30.30;48.10
72206;DHT22;60111;48.286;7.812;2023-06-22T15:17:18;30.40;48.20
72206;DHT22;60111;48.286;7.812;2023-06-22T15:19:51;30.40;48.10
72206;DHT22;60111;48.286;7.812;2023-06-22T15:22:23;30.60;47.80
72206;DHT22;60111;48.286;7.812;2023-06-22T15:24:56;30.60;48.40
72206;DHT22;60111;48.286;7.812;2023-06-22T15:27:29;30.70;47.20
72206;DHT22;60111;48.286;7.812;2023-06-22T15:30:02;30.80;47.80
72206;DHT22;60111;48.286;7.812;2023-06-22T15:32:35;30.90;46.80
72206;DHT22;60111;48.286;7.812;2023-06-22T15:35:08;31.00;46.20
72206;DHT22;60111;48.286;7.812;2023-06-22T15:37:40;31.00;46.30
72206;DHT22;60111;48.286;7.812;2023-06-22T15:40:13;30.80;46.80
72206;DHT22;60111;48.286;7.812;2023-06-22T15:42:45;30.90;46.80
72206;DHT22;60111;48.286;7.812;2023-06-22T15:45:18;31.00;47.60
72206;DHT22;60111;48.286;7.812;2023-06-22T15:47:51;30.90;45.30
72206;DHT22;60111;48.286;7.812;2023-06-22T15:50:24;30.70;46.20
72206;DHT22;60111;48.286;7.812;2023-06-22T15:52:56;30.90;46.80
72206;DHT22;60111;48.286;7.812;2023-06-22T15:55:29;30.80;47.00
72206;DHT22;60111;48.286;7.812;2023-06-22T15:58:02;30.70;46.80
72206;DHT22;60111;48.286;7.812;2023-06-22T16:00:35;30.60;47.00
72206;DHT22;60111;48.286;7.812;2023-06-22T16:03:07;30.40;46.80
72206;DHT22;60111;48.286;7.812;2023-06-22T16:05:41;30.20;47.60
72206;DHT22;60111;48.286;7.812;2023-06-22T16:08:13;30.00;48.00